createdAt,value
2019-05-12T00:00:31.505Z,2.70
2019-05-12T00:03:00.928Z,2.83
2019-05-12T00:05:31.320Z,2.97
2019-05-12T00:08:00.776Z,4.30
2019-05-12T00:10:30.468Z,3.93
2019-05-12T00:13:00.042Z,2.83
2019-05-12T00:15:30.445Z,4.93
2019-05-12T00:17:59.974Z,2.17
2019-05-12T00:20:29.374Z,2.13
2019-05-12T00:23:00.531Z,3.20
2019-05-12T00:25:31.564Z,2.80
2019-05-12T00:28:01.083Z,3.70
2019-05-12T00:30:38.846Z,2.63
2019-05-12T00:33:09.394Z,3.53
2019-05-12T00:35:39.856Z,5.33
2019-05-12T00:38:09.592Z,5.13
2019-05-12T00:40:39.796Z,6.90
2019-05-12T00:43:10.085Z,5.47
2019-05-12T00:45:40.399Z,3.07
2019-05-12T00:48:11.778Z,3.57
2019-05-12T00:50:41.232Z,2.80
2019-05-12T00:53:10.736Z,4.20
2019-05-12T00:55:41.731Z,5.40
2019-05-12T00:58:11.245Z,3.80
2019-05-12T01:00:41.601Z,5.93
2019-05-12T01:03:11.112Z,3.57
2019-05-12T01:05:42.118Z,6.07
2019-05-12T01:08:11.544Z,3.93
2019-05-12T01:10:40.971Z,3.60
2019-05-12T01:13:10.517Z,6.00
2019-05-12T01:15:40.031Z,3.43
2019-05-12T01:18:09.882Z,3.70
2019-05-12T01:20:39.525Z,3.23
2019-05-12T01:23:09.238Z,3.67
2019-05-12T01:25:39.873Z,2.97
2019-05-12T01:28:09.443Z,4.60
2019-05-12T01:30:40.160Z,3.67
2019-05-12T01:33:09.574Z,3.90
2019-05-12T01:35:39.438Z,3.40
2019-05-12T01:38:08.875Z,3.30
2019-05-12T01:40:39.925Z,6.00
2019-05-12T01:43:09.678Z,3.40
2019-05-12T01:45:39.116Z,3.10
2019-05-12T01:48:09.413Z,3.53
2019-05-12T01:50:39.267Z,5.93
2019-05-12T01:53:09.007Z,4.03
2019-05-12T01:55:39.134Z,3.17
2019-05-12T01:58:09.108Z,4.60
2019-05-12T02:00:39.323Z,5.73
2019-05-12T02:03:09.440Z,4.03
2019-05-12T02:05:41.214Z,4.67
2019-05-12T02:08:12.508Z,4.77
2019-05-12T02:10:42.027Z,6.70
2019-05-12T02:13:11.540Z,6.07
2019-05-12T02:15:41.472Z,4.03
2019-05-12T02:18:10.987Z,6.57
2019-05-12T02:20:40.971Z,3.63
2019-05-12T02:23:10.502Z,3.97
2019-05-12T02:25:40.422Z,3.23
2019-05-12T02:28:09.927Z,3.27
2019-05-12T02:30:41.528Z,2.60
2019-05-12T02:33:11.246Z,2.90
2019-05-12T02:35:40.733Z,2.60
2019-05-12T02:38:10.306Z,3.27
2019-05-12T02:40:44.683Z,3.33
2019-05-12T02:43:15.167Z,3.47
2019-05-12T02:45:44.648Z,5.07
2019-05-12T02:48:14.714Z,5.47
2019-05-12T02:50:45.165Z,4.17
2019-05-12T02:53:15.220Z,5.50
2019-05-12T02:55:47.338Z,4.37
2019-05-12T02:58:17.160Z,4.50
2019-05-12T03:00:47.894Z,4.13
2019-05-12T03:03:19.344Z,3.30
2019-05-12T03:05:50.451Z,4.47
2019-05-12T03:08:25.637Z,4.10
2019-05-12T03:10:55.050Z,3.50
2019-05-12T03:13:25.448Z,3.90
2019-05-12T03:15:55.171Z,4.70
2019-05-12T03:18:25.479Z,3.90
2019-05-12T03:20:55.277Z,4.90
2019-05-12T03:23:25.081Z,3.50
2019-05-12T03:25:54.937Z,3.73
2019-05-12T03:28:25.443Z,3.97
2019-05-12T03:30:57.560Z,4.07
2019-05-12T03:33:34.550Z,5.33
2019-05-12T03:36:00.752Z,3.43
2019-05-12T03:38:28.926Z,2.13
2019-05-12T03:40:58.438Z,5.50
2019-05-12T03:43:27.944Z,5.43
2019-05-12T03:45:57.386Z,3.70
2019-05-12T03:48:28.322Z,3.17
2019-05-12T03:50:57.766Z,2.27
2019-05-12T03:53:27.206Z,2.93
2019-05-12T03:55:56.649Z,4.53
2019-05-12T03:58:27.714Z,5.83
2019-05-12T04:00:57.149Z,3.73
2019-05-12T04:03:26.848Z,2.43
2019-05-12T04:05:56.292Z,1.90
2019-05-12T04:08:26.662Z,4.03
2019-05-12T04:10:58.314Z,2.33
2019-05-12T04:13:27.889Z,2.70
2019-05-12T04:15:57.349Z,2.07
2019-05-12T04:18:26.969Z,3.53
2019-05-12T04:20:56.431Z,4.67
2019-05-12T04:23:25.946Z,2.03
2019-05-12T04:26:07.450Z,4.43
2019-05-12T04:28:26.624Z,1.97
2019-05-12T04:30:56.226Z,2.70
2019-05-12T04:33:25.975Z,2.63
2019-05-12T04:35:55.711Z,1.93
2019-05-12T04:38:25.468Z,3.17
2019-05-12T04:40:55.738Z,4.07
2019-05-12T04:43:25.650Z,4.03
2019-05-12T04:45:55.321Z,4.17
2019-05-12T04:48:25.779Z,3.30
2019-05-12T04:50:55.599Z,4.03
2019-05-12T04:53:25.437Z,2.80
2019-05-12T04:56:09.707Z,2.63
2019-05-12T04:58:26.206Z,1.70
2019-05-12T05:00:57.363Z,2.03
2019-05-12T05:03:26.865Z,2.60
2019-05-12T05:05:56.301Z,2.50
2019-05-12T05:08:25.751Z,2.70
2019-05-12T05:10:55.193Z,4.00
2019-05-12T05:13:25.153Z,3.37
2019-05-12T05:15:55.029Z,2.20
2019-05-12T05:18:24.781Z,3.40
2019-05-12T05:20:54.311Z,3.30
2019-05-12T05:23:24.221Z,2.50
2019-05-12T05:25:53.972Z,3.63
2019-05-12T05:28:24.152Z,5.00
2019-05-12T05:30:53.656Z,3.07
2019-05-12T05:33:23.888Z,3.70
2019-05-12T05:35:54.458Z,1.63
2019-05-12T05:38:25.219Z,2.60
2019-05-12T05:40:54.946Z,1.57
2019-05-12T05:43:24.988Z,1.60
2019-05-12T05:46:02.251Z,2.73
2019-05-12T05:48:25.717Z,2.33
2019-05-12T05:50:55.201Z,1.97
2019-05-12T05:53:24.646Z,1.67
2019-05-12T05:55:56.223Z,2.37
2019-05-12T05:58:26.162Z,2.30
2019-05-12T06:01:02.977Z,2.93
2019-05-12T06:03:27.952Z,4.33
2019-05-12T06:06:01.526Z,2.57
2019-05-12T06:08:29.064Z,2.07
2019-05-12T06:11:00.222Z,1.50
2019-05-12T06:13:33.951Z,2.33
2019-05-12T06:16:04.449Z,4.87
2019-05-12T06:18:33.586Z,2.20
2019-05-12T06:21:03.510Z,1.57
2019-05-12T06:23:34.923Z,2.60
2019-05-12T06:26:04.866Z,2.13
2019-05-12T06:28:40.914Z,2.37
2019-05-12T06:31:09.484Z,4.33
2019-05-12T06:33:38.924Z,1.90
2019-05-12T06:36:14.008Z,4.40
2019-05-12T06:38:40.631Z,2.37
2019-05-12T06:41:12.696Z,6.10
2019-05-12T06:43:44.692Z,1.77
2019-05-12T06:46:20.452Z,3.50
2019-05-12T06:48:45.579Z,2.50
2019-05-12T06:51:22.426Z,4.30
2019-05-12T06:53:45.969Z,1.70
2019-05-12T06:56:19.845Z,1.80
2019-05-12T06:58:46.504Z,2.30
2019-05-12T07:01:19.411Z,2.23
2019-05-12T07:03:47.324Z,3.73
2019-05-12T07:06:19.891Z,3.93
2019-05-12T07:09:02.436Z,3.50
2019-05-12T07:11:20.736Z,2.30
2019-05-12T07:14:01.336Z,3.60
2019-05-12T07:16:28.813Z,4.53
2019-05-12T07:18:54.232Z,2.10
2019-05-12T07:21:27.288Z,2.03
2019-05-12T07:24:00.427Z,1.73
2019-05-12T07:26:27.710Z,4.80
2019-05-12T07:28:57.142Z,1.47
2019-05-12T07:31:26.625Z,2.93
2019-05-12T07:33:56.126Z,3.93
2019-05-12T07:36:27.367Z,2.30
2019-05-12T07:39:04.082Z,5.00
2019-05-12T07:41:34.054Z,2.60
2019-05-12T07:44:03.759Z,3.73
2019-05-12T07:46:34.223Z,4.37
2019-05-12T07:49:04.021Z,2.40
2019-05-12T07:51:38.843Z,2.77
2019-05-12T07:54:04.809Z,5.03
2019-05-12T07:56:35.846Z,2.77
2019-05-12T07:59:05.539Z,4.03
2019-05-12T08:01:43.903Z,4.57
2019-05-12T08:04:06.123Z,2.43
2019-05-12T08:06:41.858Z,4.63
2019-05-12T08:09:07.974Z,3.63
2019-05-12T08:11:38.865Z,4.37
2019-05-12T08:14:15.459Z,2.20
2019-05-12T08:16:39.753Z,4.13
2019-05-12T08:19:17.251Z,3.37
2019-05-12T08:21:48.454Z,4.50
2019-05-12T08:24:14.299Z,3.90
2019-05-12T08:26:43.758Z,3.70
2019-05-12T08:29:17.004Z,3.63
2019-05-12T08:31:44.447Z,2.23
2019-05-12T08:34:13.895Z,1.73
2019-05-12T08:36:45.060Z,2.30
2019-05-12T08:39:21.374Z,1.37
2019-05-12T08:41:45.574Z,3.07
2019-05-12T08:44:17.516Z,3.33
2019-05-12T08:46:52.084Z,3.50
2019-05-12T08:49:17.444Z,4.23
2019-05-12T08:51:49.599Z,1.80
2019-05-12T08:54:18.175Z,1.30
2019-05-12T08:56:51.068Z,1.67
2019-05-12T08:59:24.242Z,3.20
2019-05-12T09:01:50.081Z,2.97
2019-05-12T09:04:19.561Z,2.30
2019-05-12T09:06:54.847Z,1.50
2019-05-12T09:09:23.156Z,2.53
2019-05-12T09:11:54.220Z,2.23
2019-05-12T09:14:24.030Z,4.47
2019-05-12T09:17:02.037Z,1.10
2019-05-12T09:19:27.092Z,3.73
2019-05-12T09:21:55.638Z,2.57
2019-05-12T09:24:27.182Z,4.10
2019-05-12T09:26:59.024Z,2.83
2019-05-12T09:29:27.363Z,4.17
2019-05-12T09:31:59.215Z,3.13
2019-05-12T09:34:29.348Z,4.83
2019-05-12T09:36:59.858Z,1.40
2019-05-12T09:39:34.098Z,1.80
2019-05-12T09:42:03.547Z,4.70
2019-05-12T09:44:34.543Z,4.77
2019-05-12T09:47:05.018Z,4.67
2019-05-12T09:49:39.278Z,5.53
2019-05-12T09:52:06.262Z,1.57
2019-05-12T09:54:40.769Z,1.10
2019-05-12T09:57:08.524Z,2.03
2019-05-12T09:59:38.040Z,2.77
2019-05-12T10:02:10.610Z,2.63
2019-05-12T10:04:38.660Z,3.57
2019-05-12T10:07:09.787Z,6.37
2019-05-12T10:09:39.236Z,4.67
2019-05-12T10:12:10.005Z,5.97
2019-05-12T10:14:45.849Z,2.80
2019-05-12T10:17:20.241Z,4.50
2019-05-12T10:19:48.477Z,4.13
2019-05-12T10:22:17.602Z,3.20
2019-05-12T10:24:56.084Z,3.30
2019-05-12T10:27:21.078Z,2.27
2019-05-12T10:29:51.017Z,6.07
2019-05-12T10:32:20.653Z,4.67
2019-05-12T10:34:53.785Z,5.47
2019-05-12T10:37:25.347Z,7.13
2019-05-12T10:39:56.069Z,5.27
2019-05-12T10:42:27.013Z,4.63
2019-05-12T10:44:56.783Z,4.67
2019-05-12T10:47:26.353Z,4.57
2019-05-12T10:49:55.791Z,2.73
2019-05-12T10:52:29.528Z,3.00
2019-05-12T10:54:56.370Z,3.93
2019-05-12T10:57:25.872Z,5.63
2019-05-12T10:59:56.875Z,3.37
2019-05-12T11:02:30.463Z,4.67
2019-05-12T11:04:59.035Z,5.80
2019-05-12T11:07:30.073Z,3.57
2019-05-12T11:10:05.212Z,3.20
2019-05-12T11:12:30.629Z,6.60
2019-05-12T11:15:01.138Z,6.27
2019-05-12T11:17:46.064Z,3.57
2019-05-12T11:20:14.142Z,3.63
2019-05-12T11:22:45.238Z,6.07
2019-05-12T11:25:14.717Z,6.53
2019-05-12T11:27:44.496Z,5.87
2019-05-12T11:30:14.475Z,6.80
2019-05-12T11:32:45.578Z,4.67
2019-05-12T11:35:15.390Z,5.17
2019-05-12T11:37:44.909Z,4.40
2019-05-12T11:40:14.494Z,6.53
2019-05-12T11:42:46.829Z,4.70
2019-05-12T11:45:15.694Z,4.80
2019-05-12T11:47:45.137Z,6.10
2019-05-12T11:50:15.036Z,4.37
2019-05-12T11:52:46.004Z,4.43
2019-05-12T11:55:16.092Z,4.23
2019-05-12T11:57:45.590Z,3.60
2019-05-12T12:00:16.837Z,7.00
2019-05-12T12:02:46.342Z,4.87
2019-05-12T12:05:15.946Z,7.50
2019-05-12T12:07:51.272Z,4.63
2019-05-12T12:10:17.042Z,5.87
2019-05-12T12:12:49.225Z,4.57
2019-05-12T12:15:20.529Z,4.67
2019-05-12T12:17:49.112Z,5.53
2019-05-12T12:20:22.608Z,5.70
2019-05-12T12:22:50.338Z,4.20
2019-05-12T12:25:23.384Z,3.90
2019-05-12T12:27:53.780Z,7.17
2019-05-12T12:30:23.805Z,4.70
2019-05-12T12:32:57.099Z,4.33
2019-05-12T12:35:24.423Z,5.67
2019-05-12T12:37:54.284Z,4.40
2019-05-12T12:40:25.309Z,5.50
2019-05-12T12:42:56.287Z,6.20
2019-05-12T12:45:30.348Z,4.93
2019-05-12T12:47:59.607Z,6.07
2019-05-12T12:50:30.664Z,3.70
2019-05-12T12:53:00.699Z,4.73
2019-05-12T12:55:30.105Z,4.90
2019-05-12T12:57:59.637Z,6.20
2019-05-12T13:00:32.740Z,5.67
2019-05-12T13:03:03.692Z,5.00
2019-05-12T13:05:34.523Z,4.57
2019-05-12T13:08:04.408Z,6.33
2019-05-12T13:10:33.878Z,5.67
2019-05-12T13:13:04.222Z,5.33
2019-05-12T13:15:34.240Z,6.07
2019-05-12T13:18:03.739Z,3.30
2019-05-12T13:20:34.374Z,5.87
2019-05-12T13:23:05.021Z,4.60
2019-05-12T13:25:38.807Z,5.40
2019-05-12T13:28:10.582Z,6.50
2019-05-12T13:30:46.288Z,2.70
2019-05-12T13:33:13.974Z,5.93
2019-05-12T13:35:39.937Z,3.30
2019-05-12T13:38:09.386Z,4.17
2019-05-12T13:40:39.478Z,5.03
2019-05-12T13:43:14.244Z,2.17
2019-05-12T13:45:40.083Z,2.23
2019-05-12T13:48:14.745Z,3.53
2019-05-12T13:50:43.648Z,5.33
2019-05-12T13:53:26.999Z,4.13
2019-05-12T13:55:56.402Z,4.93
2019-05-12T13:58:28.348Z,4.83
2019-05-12T14:03:28.301Z,5.60
2019-05-12T14:05:57.659Z,4.53
2019-05-12T14:08:30.325Z,5.60
2019-05-12T14:11:00.243Z,4.23
2019-05-12T14:13:29.676Z,7.73
2019-05-12T14:16:02.574Z,4.73
2019-05-12T14:18:30.540Z,4.60
2019-05-12T14:21:00.525Z,3.67
2019-05-12T14:23:30.161Z,3.67
2019-05-12T14:26:02.307Z,5.23
2019-05-12T14:28:33.561Z,3.07
2019-05-12T14:31:02.992Z,3.83
2019-05-12T14:33:35.963Z,3.73
2019-05-12T14:36:04.187Z,4.93
2019-05-12T14:38:33.888Z,5.30
2019-05-12T14:41:10.000Z,6.60
2019-05-12T14:43:34.534Z,5.43
2019-05-12T14:46:06.302Z,5.37
2019-05-12T14:48:40.410Z,5.50
2019-05-12T14:51:06.658Z,6.80
2019-05-12T14:53:38.522Z,4.83
2019-05-12T14:56:07.320Z,4.03
2019-05-12T14:58:36.731Z,3.37
2019-05-12T15:01:06.319Z,4.80
2019-05-12T15:03:35.734Z,4.20
2019-05-12T15:06:07.631Z,6.37
2019-05-12T15:08:40.390Z,5.77
2019-05-12T15:11:09.490Z,5.47
2019-05-12T15:13:38.975Z,10.27
2019-05-12T15:16:08.507Z,9.83
2019-05-12T15:18:39.717Z,5.07
2019-05-12T15:21:09.405Z,6.60
2019-05-12T15:23:38.915Z,7.90
2019-05-12T15:26:09.450Z,4.63
2019-05-12T15:28:39.513Z,5.93
2019-05-12T15:31:08.985Z,5.47
2019-05-12T15:33:38.477Z,5.67
2019-05-12T15:36:07.970Z,3.97
2019-05-12T15:38:37.377Z,3.93
2019-05-12T15:41:10.714Z,4.70
2019-05-12T15:43:44.428Z,5.23
2019-05-12T15:46:09.268Z,6.60
2019-05-12T15:48:38.687Z,4.30
2019-05-12T15:51:08.688Z,5.63
2019-05-12T15:53:38.445Z,5.23
2019-05-12T15:56:14.420Z,5.20
2019-05-12T15:58:39.003Z,5.33
2019-05-12T16:01:08.596Z,6.03
2019-05-12T16:03:38.006Z,5.97
2019-05-12T16:06:11.731Z,5.57
2019-05-12T16:08:38.576Z,5.87
2019-05-12T16:11:08.027Z,4.97
2019-05-12T16:13:37.462Z,5.43
2019-05-12T16:16:06.998Z,6.87
2019-05-12T16:18:40.520Z,5.87
2019-05-12T16:21:09.478Z,7.77
2019-05-12T16:23:39.043Z,5.53
2019-05-12T16:26:12.466Z,4.77
2019-05-12T16:28:44.627Z,4.70
2019-05-12T16:31:14.589Z,8.50
2019-05-12T16:33:44.129Z,5.40
2019-05-12T16:36:14.490Z,6.83
2019-05-12T16:38:44.631Z,6.00
2019-05-12T16:41:14.488Z,5.60
2019-05-12T16:43:44.271Z,5.53
2019-05-12T16:46:14.370Z,5.07
2019-05-12T16:48:48.335Z,4.73
2019-05-12T16:51:15.013Z,6.23
2019-05-12T16:53:44.429Z,3.87
2019-05-12T16:56:19.886Z,8.43
2019-05-12T16:58:46.462Z,5.80
2019-05-12T17:01:19.520Z,7.97
2019-05-12T17:03:46.991Z,6.80
2019-05-12T17:06:20.491Z,5.97
2019-05-12T17:08:49.156Z,5.73
2019-05-12T17:11:26.879Z,9.33
2019-05-12T17:13:59.767Z,6.37
2019-05-12T17:16:21.014Z,5.27
2019-05-12T17:18:50.608Z,5.83
2019-05-12T17:21:24.104Z,4.57
2019-05-12T17:23:53.452Z,3.97
2019-05-12T17:26:24.305Z,5.97
2019-05-12T17:28:54.015Z,5.10
2019-05-12T17:31:23.457Z,6.07
2019-05-12T17:33:54.338Z,6.77
2019-05-12T17:36:24.290Z,7.93
2019-05-12T17:38:56.199Z,4.63
2019-05-12T17:41:24.951Z,5.40
2019-05-12T17:44:00.492Z,6.60
2019-05-12T17:46:25.588Z,6.73
2019-05-12T17:48:55.001Z,6.80
2019-05-12T17:51:26.704Z,5.27
2019-05-12T17:53:57.158Z,5.00
2019-05-12T17:56:33.933Z,6.63
2019-05-12T17:58:57.761Z,6.90
2019-05-12T18:01:31.242Z,7.50
2019-05-12T18:03:58.505Z,5.43
2019-05-12T18:06:30.937Z,5.60
2019-05-12T18:08:59.074Z,6.97
2019-05-12T18:11:28.545Z,6.80
2019-05-12T18:14:02.564Z,7.07
2019-05-12T18:16:29.173Z,5.83
2019-05-12T18:18:58.593Z,7.43
2019-05-12T18:21:30.946Z,5.77
2019-05-12T18:24:00.448Z,6.53
2019-05-12T18:26:30.367Z,6.23
2019-05-12T18:28:59.770Z,7.20
2019-05-12T18:31:30.190Z,6.27
2019-05-12T18:33:59.598Z,7.70
2019-05-12T18:36:30.618Z,6.87
2019-05-12T18:39:05.868Z,6.77
2019-05-12T18:41:33.571Z,7.57
2019-05-12T18:44:04.429Z,8.00
2019-05-12T18:46:36.329Z,9.17
2019-05-12T18:49:12.461Z,7.40
2019-05-12T18:51:36.635Z,5.30
2019-05-12T18:54:10.224Z,5.60
2019-05-12T18:56:37.411Z,5.87
2019-05-12T18:59:11.614Z,6.70
2019-05-12T19:01:38.077Z,7.27
2019-05-12T19:04:07.585Z,9.37
2019-05-12T19:06:37.033Z,3.53
2019-05-12T19:09:08.587Z,7.07
2019-05-12T19:11:42.124Z,4.43
2019-05-12T19:14:09.338Z,6.23
2019-05-12T19:16:38.853Z,6.63
2019-05-12T19:19:09.652Z,6.77
2019-05-12T19:21:39.466Z,9.50
2019-05-12T19:24:17.579Z,6.63
2019-05-12T19:26:40.505Z,6.97
2019-05-12T19:29:10.043Z,5.17
2019-05-12T19:31:43.550Z,8.13
2019-05-12T19:34:19.843Z,9.40
2019-05-12T19:36:44.921Z,6.50
2019-05-12T19:39:13.013Z,7.23
2019-05-12T19:41:43.650Z,6.40
2019-05-12T19:44:13.593Z,7.17
2019-05-12T19:46:46.177Z,6.73
2019-05-12T19:49:14.314Z,5.87
2019-05-12T19:51:44.000Z,8.43
2019-05-12T19:54:14.001Z,10.20
2019-05-12T19:56:43.628Z,8.57
2019-05-12T19:59:14.606Z,6.03
2019-05-12T20:01:45.790Z,8.73
2019-05-12T20:04:29.756Z,8.90
2019-05-12T20:06:46.334Z,7.30
2019-05-12T20:09:15.770Z,9.60
2019-05-12T20:11:45.174Z,7.10
2019-05-12T20:14:16.727Z,6.10
2019-05-12T20:16:45.818Z,8.67
2019-05-12T20:19:19.863Z,6.07
2019-05-12T20:21:46.842Z,9.93
2019-05-12T20:24:17.841Z,12.03
2019-05-12T20:26:47.233Z,8.30
2019-05-12T20:29:17.617Z,9.23
2019-05-12T20:31:48.731Z,7.20
2019-05-12T20:34:18.380Z,8.80
2019-05-12T20:36:47.815Z,6.77
2019-05-12T20:39:21.735Z,9.93
2019-05-12T20:41:48.520Z,9.33
2019-05-12T20:44:19.944Z,6.30
2019-05-12T20:46:49.203Z,6.20
2019-05-12T20:49:20.393Z,7.80
2019-05-12T20:51:55.197Z,7.43
2019-05-12T20:54:20.909Z,6.10
2019-05-12T20:56:53.153Z,7.23
2019-05-12T20:59:27.440Z,6.90
2019-05-12T21:01:52.722Z,7.73
2019-05-12T21:04:31.461Z,9.83
2019-05-12T21:06:55.273Z,5.97
2019-05-12T21:09:24.689Z,7.20
2019-05-12T21:11:54.861Z,7.53
2019-05-12T21:14:24.327Z,5.97
2019-05-12T21:16:54.124Z,10.27
2019-05-12T21:19:24.213Z,6.97
2019-05-12T21:21:54.833Z,13.50
2019-05-12T21:24:29.141Z,6.83
2019-05-12T21:26:55.829Z,7.47
2019-05-12T21:29:29.708Z,9.07
2019-05-12T21:31:56.493Z,4.97
2019-05-12T21:34:25.953Z,7.37
2019-05-12T21:36:58.929Z,8.57
2019-05-12T21:39:26.495Z,6.60
2019-05-12T21:41:55.941Z,9.10
2019-05-12T21:44:25.403Z,8.50
2019-05-12T21:47:02.687Z,4.27
2019-05-12T21:49:26.046Z,9.43
2019-05-12T21:51:58.955Z,9.27
2019-05-12T21:54:29.602Z,7.70
2019-05-12T21:56:57.724Z,7.73
2019-05-12T21:59:28.822Z,10.03
2019-05-12T22:01:59.059Z,4.33
2019-05-12T22:04:32.930Z,7.63
2019-05-12T22:07:01.301Z,8.70
2019-05-12T22:09:32.908Z,11.10
2019-05-12T22:12:04.017Z,9.10
2019-05-12T22:14:36.558Z,10.50
2019-05-12T22:17:06.798Z,4.10
2019-05-12T22:19:38.165Z,6.07
2019-05-12T22:22:07.321Z,6.07
2019-05-12T22:24:38.950Z,7.20
2019-05-12T22:27:08.050Z,5.40
2019-05-12T22:29:37.451Z,8.97
2019-05-12T22:32:06.934Z,7.60
2019-05-12T22:34:41.880Z,7.60
2019-05-12T22:37:07.542Z,6.37
2019-05-12T22:39:36.938Z,6.57
2019-05-12T22:42:11.653Z,7.33
2019-05-12T22:44:37.530Z,5.97
2019-05-12T22:47:12.653Z,5.77
2019-05-12T22:49:38.148Z,12.17
2019-05-12T22:52:09.209Z,9.13
2019-05-12T22:54:40.626Z,7.13
2019-05-12T22:57:09.798Z,6.23
2019-05-12T22:59:41.998Z,12.53
2019-05-12T23:02:16.080Z,10.10
2019-05-12T23:04:43.954Z,7.60
2019-05-12T23:07:18.828Z,6.50
2019-05-12T23:09:44.873Z,11.80
2019-05-12T23:12:18.474Z,7.07
2019-05-12T23:14:45.664Z,7.13
2019-05-12T23:17:15.251Z,10.30
2019-05-12T23:19:51.479Z,10.93
2019-05-12T23:22:16.086Z,10.07
2019-05-12T23:24:45.540Z,7.07
2019-05-12T23:27:18.919Z,5.77
2019-05-12T23:29:46.082Z,6.93
2019-05-12T23:32:15.571Z,6.13
2019-05-12T23:34:56.518Z,8.53
2019-05-12T23:37:16.179Z,8.50
2019-05-12T23:39:45.620Z,7.10
2019-05-12T23:42:15.031Z,7.83
2019-05-12T23:44:44.514Z,10.03
2019-05-12T23:47:13.957Z,13.90
2019-05-12T23:49:44.407Z,11.97
2019-05-12T23:52:14.214Z,8.10
2019-05-12T23:54:44.475Z,9.73
2019-05-12T23:57:15.722Z,10.33
2019-05-12T23:59:45.315Z,8.47
